sensor_id;sensor_type;location;lat;lon;timestamp;P1;durP1;ratioP1;P2;durP2;ratioP2
53145;SDS011;39042;53.150;5.898;2023-04-01T00:11:24;10.25;;;6.82;;
53145;SDS011;39042;53.150;5.898;2023-04-01T00:13:52;16.15;;;8.18;;
53145;SDS011;39042;53.150;5.898;2023-04-01T00:16:18;10.70;;;6.72;;
53145;SDS011;39042;53.150;5.898;2023-04-01T00:18:45;11.40;;;7.50;;
53145;SDS011;39042;53.150;5.898;2023-04-01T00:21:12;14.18;;;8.15;;
53145;SDS011;39042;53.150;5.898;2023-04-01T00:23:38;10.43;;;7.18;;
53145;SDS011;39042;53.150;5.898;2023-04-01T00:26:04;11.50;;;7.50;;
53145;SDS011;39042;53.150;5.898;2023-04-01T00:28:30;13.65;;;8.35;;
53145;SDS011;39042;53.150;5.898;2023-04-01T00:30:58;11.38;;;7.82;;
53145;SDS011;39042;53.150;5.898;2023-04-01T00:33:30;11.95;;;8.05;;
53145;SDS011;39042;53.150;5.898;2023-04-01T00:35:56;14.13;;;8.50;;
53145;SDS011;39042;53.150;5.898;2023-04-01T00:38:34;13.32;;;8.43;;
53145;SDS011;39042;53.150;5.898;2023-04-01T00:41:01;13.90;;;8.45;;
53145;SDS011;39042;53.150;5.898;2023-04-01T00:43:27;14.70;;;9.07;;
53145;SDS011;39042;53.150;5.898;2023-04-01T00:45:53;14.53;;;8.90;;
53145;SDS011;39042;53.150;5.898;2023-04-01T00:48:19;12.07;;;8.43;;
53145;SDS011;39042;53.150;5.898;2023-04-01T00:50:49;12.55;;;8.35;;
53145;SDS011;39042;53.150;5.898;2023-04-01T00:53:21;14.45;;;8.82;;
53145;SDS011;39042;53.150;5.898;2023-04-01T00:55:54;12.50;;;8.63;;
53145;SDS011;39042;53.150;5.898;2023-04-01T00:58:25;12.07;;;8.00;;
53145;SDS011;39042;53.150;5.898;2023-04-01T01:00:54;13.93;;;8.50;;
53145;SDS011;39042;53.150;5.898;2023-04-01T01:03:21;13.93;;;8.85;;
53145;SDS011;39042;53.150;5.898;2023-04-01T01:05:55;15.03;;;8.80;;
53145;SDS011;39042;53.150;5.898;2023-04-01T01:11:11;13.40;;;9.00;;
53145;SDS011;39042;53.150;5.898;2023-04-01T01:13:49;16.15;;;9.50;;
53145;SDS011;39042;53.150;5.898;2023-04-01T01:16:30;11.98;;;8.55;;
53145;SDS011;39042;53.150;5.898;2023-04-01T01:21:59;13.80;;;8.38;;
53145;SDS011;39042;53.150;5.898;2023-04-01T01:24:55;13.75;;;9.00;;
53145;SDS011;39042;53.150;5.898;2023-04-01T01:27:32;17.23;;;9.32;;
53145;SDS011;39042;53.150;5.898;2023-04-01T01:30:05;15.55;;;9.57;;
53145;SDS011;39042;53.150;5.898;2023-04-01T01:35:38;14.85;;;8.52;;
53145;SDS011;39042;53.150;5.898;2023-04-01T01:38:18;16.67;;;9.40;;
53145;SDS011;39042;53.150;5.898;2023-04-01T01:40:58;14.65;;;8.82;;
53145;SDS011;39042;53.150;5.898;2023-04-01T01:43:30;14.75;;;8.45;;
53145;SDS011;39042;53.150;5.898;2023-04-01T01:46:13;15.25;;;8.32;;
53145;SDS011;39042;53.150;5.898;2023-04-01T01:48:44;14.55;;;9.02;;
53145;SDS011;39042;53.150;5.898;2023-04-01T01:51:12;15.75;;;9.38;;
53145;SDS011;39042;53.150;5.898;2023-04-01T01:53:38;16.65;;;9.32;;
53145;SDS011;39042;53.150;5.898;2023-04-01T01:56:04;14.88;;;9.23;;
53145;SDS011;39042;53.150;5.898;2023-04-01T01:58:45;16.65;;;10.00;;
53145;SDS011;39042;53.150;5.898;2023-04-01T02:01:17;15.57;;;9.25;;
53145;SDS011;39042;53.150;5.898;2023-04-01T02:03:49;16.52;;;8.88;;
53145;SDS011;39042;53.150;5.898;2023-04-01T02:06:19;15.77;;;9.45;;
53145;SDS011;39042;53.150;5.898;2023-04-01T02:08:59;14.88;;;9.98;;
53145;SDS011;39042;53.150;5.898;2023-04-01T02:14:18;17.48;;;10.02;;
53145;SDS011;39042;53.150;5.898;2023-04-01T02:16:57;13.70;;;9.07;;
53145;SDS011;39042;53.150;5.898;2023-04-01T02:19:39;17.20;;;8.85;;
53145;SDS011;39042;53.150;5.898;2023-04-01T02:22:12;14.85;;;8.88;;
53145;SDS011;39042;53.150;5.898;2023-04-01T02:24:41;17.05;;;9.30;;
53145;SDS011;39042;53.150;5.898;2023-04-01T02:27:10;14.27;;;8.75;;
53145;SDS011;39042;53.150;5.898;2023-04-01T02:32:05;13.52;;;8.52;;
53145;SDS011;39042;53.150;5.898;2023-04-01T02:36:58;14.82;;;8.68;;
53145;SDS011;39042;53.150;5.898;2023-04-01T02:39:24;15.27;;;8.90;;
53145;SDS011;39042;53.150;5.898;2023-04-01T02:41:51;16.75;;;8.85;;
53145;SDS011;39042;53.150;5.898;2023-04-01T02:44:17;14.30;;;9.27;;
53145;SDS011;39042;53.150;5.898;2023-04-01T02:46:44;15.50;;;9.20;;
53145;SDS011;39042;53.150;5.898;2023-04-01T02:49:10;14.53;;;9.17;;
53145;SDS011;39042;53.150;5.898;2023-04-01T02:51:36;15.05;;;8.60;;
53145;SDS011;39042;53.150;5.898;2023-04-01T02:54:02;14.90;;;8.32;;
53145;SDS011;39042;53.150;5.898;2023-04-01T02:56:28;16.57;;;9.10;;
53145;SDS011;39042;53.150;5.898;2023-04-01T02:58:54;13.05;;;8.52;;
53145;SDS011;39042;53.150;5.898;2023-04-01T03:01:20;15.75;;;9.30;;
53145;SDS011;39042;53.150;5.898;2023-04-01T03:03:46;14.55;;;9.25;;
53145;SDS011;39042;53.150;5.898;2023-04-01T03:06:13;14.97;;;8.23;;
53145;SDS011;39042;53.150;5.898;2023-04-01T03:08:40;13.85;;;8.98;;
53145;SDS011;39042;53.150;5.898;2023-04-01T03:11:06;14.52;;;8.75;;
53145;SDS011;39042;53.150;5.898;2023-04-01T03:13:34;17.30;;;9.20;;
53145;SDS011;39042;53.150;5.898;2023-04-01T03:16:01;16.40;;;8.95;;
53145;SDS011;39042;53.150;5.898;2023-04-01T03:18:26;17.17;;;10.03;;
53145;SDS011;39042;53.150;5.898;2023-04-01T03:20:53;14.55;;;9.25;;
53145;SDS011;39042;53.150;5.898;2023-04-01T03:23:18;15.47;;;9.73;;
53145;SDS011;39042;53.150;5.898;2023-04-01T03:25:46;15.55;;;9.20;;
53145;SDS011;39042;53.150;5.898;2023-04-01T03:28:13;17.80;;;9.98;;
53145;SDS011;39042;53.150;5.898;2023-04-01T03:30:39;13.97;;;9.10;;
53145;SDS011;39042;53.150;5.898;2023-04-01T03:33:05;17.70;;;9.32;;
53145;SDS011;39042;53.150;5.898;2023-04-01T03:35:31;16.03;;;10.13;;
53145;SDS011;39042;53.150;5.898;2023-04-01T03:37:57;17.15;;;10.18;;
53145;SDS011;39042;53.150;5.898;2023-04-01T03:40:24;11.40;;;7.47;;
53145;SDS011;39042;53.150;5.898;2023-04-01T03:42:52;18.23;;;10.77;;
53145;SDS011;39042;53.150;5.898;2023-04-01T03:45:17;17.57;;;10.30;;
53145;SDS011;39042;53.150;5.898;2023-04-01T03:47:44;16.20;;;9.15;;
53145;SDS011;39042;53.150;5.898;2023-04-01T03:50:10;20.70;;;10.77;;
53145;SDS011;39042;53.150;5.898;2023-04-01T03:52:36;17.88;;;10.13;;
53145;SDS011;39042;53.150;5.898;2023-04-01T03:55:02;15.97;;;9.47;;
53145;SDS011;39042;53.150;5.898;2023-04-01T03:57:28;16.95;;;10.13;;
53145;SDS011;39042;53.150;5.898;2023-04-01T03:59:59;19.48;;;10.80;;
53145;SDS011;39042;53.150;5.898;2023-04-01T04:02:26;18.98;;;10.63;;
53145;SDS011;39042;53.150;5.898;2023-04-01T04:04:52;19.23;;;10.57;;
53145;SDS011;39042;53.150;5.898;2023-04-01T04:07:17;18.93;;;11.13;;
53145;SDS011;39042;53.150;5.898;2023-04-01T04:09:58;18.65;;;10.68;;
53145;SDS011;39042;53.150;5.898;2023-04-01T04:12:23;19.83;;;11.97;;
53145;SDS011;39042;53.150;5.898;2023-04-01T04:14:50;19.05;;;10.70;;
53145;SDS011;39042;53.150;5.898;2023-04-01T04:17:15;19.43;;;10.50;;
53145;SDS011;39042;53.150;5.898;2023-04-01T04:22:08;17.23;;;10.45;;
53145;SDS011;39042;53.150;5.898;2023-04-01T04:24:34;19.87;;;11.47;;
53145;SDS011;39042;53.150;5.898;2023-04-01T04:27:06;22.42;;;11.35;;
53145;SDS011;39042;53.150;5.898;2023-04-01T04:29:35;21.88;;;12.15;;
53145;SDS011;39042;53.150;5.898;2023-04-01T04:32:01;19.60;;;11.83;;
53145;SDS011;39042;53.150;5.898;2023-04-01T04:34:26;21.07;;;11.37;;
53145;SDS011;39042;53.150;5.898;2023-04-01T04:36:52;19.90;;;10.90;;
53145;SDS011;39042;53.150;5.898;2023-04-01T04:39:20;22.45;;;11.13;;
53145;SDS011;39042;53.150;5.898;2023-04-01T04:41:46;19.63;;;10.85;;
53145;SDS011;39042;53.150;5.898;2023-04-01T04:44:12;20.90;;;11.53;;
53145;SDS011;39042;53.150;5.898;2023-04-01T04:46:38;18.10;;;11.17;;
53145;SDS011;39042;53.150;5.898;2023-04-01T04:49:11;20.02;;;11.00;;
53145;SDS011;39042;53.150;5.898;2023-04-01T04:51:38;20.95;;;12.18;;
53145;SDS011;39042;53.150;5.898;2023-04-01T04:54:03;22.03;;;11.70;;
53145;SDS011;39042;53.150;5.898;2023-04-01T04:56:51;22.17;;;12.32;;
53145;SDS011;39042;53.150;5.898;2023-04-01T04:59:18;21.52;;;12.30;;
53145;SDS011;39042;53.150;5.898;2023-04-01T05:01:55;25.20;;;12.55;;
53145;SDS011;39042;53.150;5.898;2023-04-01T05:04:21;19.77;;;11.93;;
53145;SDS011;39042;53.150;5.898;2023-04-01T05:06:46;19.50;;;10.07;;
53145;SDS011;39042;53.150;5.898;2023-04-01T05:09:13;25.50;;;13.88;;
53145;SDS011;39042;53.150;5.898;2023-04-01T05:14:05;22.77;;;12.60;;
53145;SDS011;39042;53.150;5.898;2023-04-01T05:16:36;22.00;;;13.30;;
53145;SDS011;39042;53.150;5.898;2023-04-01T05:19:02;22.43;;;12.90;;
53145;SDS011;39042;53.150;5.898;2023-04-01T05:21:28;22.92;;;12.95;;
53145;SDS011;39042;53.150;5.898;2023-04-01T05:23:55;22.63;;;13.02;;
53145;SDS011;39042;53.150;5.898;2023-04-01T05:26:23;25.27;;;13.85;;
53145;SDS011;39042;53.150;5.898;2023-04-01T05:28:49;27.13;;;14.40;;
53145;SDS011;39042;53.150;5.898;2023-04-01T05:31:15;26.73;;;13.27;;
53145;SDS011;39042;53.150;5.898;2023-04-01T05:33:44;28.15;;;13.60;;
53145;SDS011;39042;53.150;5.898;2023-04-01T05:36:11;25.50;;;15.25;;
53145;SDS011;39042;53.150;5.898;2023-04-01T05:38:40;26.92;;;13.82;;
53145;SDS011;39042;53.150;5.898;2023-04-01T05:41:09;32.30;;;15.18;;
53145;SDS011;39042;53.150;5.898;2023-04-01T05:43:39;29.20;;;14.40;;
53145;SDS011;39042;53.150;5.898;2023-04-01T05:46:29;25.67;;;14.90;;
53145;SDS011;39042;53.150;5.898;2023-04-01T05:49:02;24.92;;;14.25;;
53145;SDS011;39042;53.150;5.898;2023-04-01T05:51:28;26.30;;;13.82;;
53145;SDS011;39042;53.150;5.898;2023-04-01T05:53:54;24.58;;;14.30;;
53145;SDS011;39042;53.150;5.898;2023-04-01T05:56:20;22.93;;;13.67;;
53145;SDS011;39042;53.150;5.898;2023-04-01T05:58:53;26.50;;;14.38;;
53145;SDS011;39042;53.150;5.898;2023-04-01T06:01:21;26.70;;;14.45;;
53145;SDS011;39042;53.150;5.898;2023-04-01T06:03:47;22.67;;;13.53;;
53145;SDS011;39042;53.150;5.898;2023-04-01T06:06:18;26.73;;;14.00;;
53145;SDS011;39042;53.150;5.898;2023-04-01T06:08:49;26.65;;;14.15;;
53145;SDS011;39042;53.150;5.898;2023-04-01T06:11:18;24.08;;;13.50;;
53145;SDS011;39042;53.150;5.898;2023-04-01T06:19:51;22.63;;;12.93;;
53145;SDS011;39042;53.150;5.898;2023-04-01T06:22:27;23.50;;;13.45;;
53145;SDS011;39042;53.150;5.898;2023-04-01T06:36:14;20.05;;;11.98;;
53145;SDS011;39042;53.150;5.898;2023-04-01T06:39:03;20.73;;;12.95;;
53145;SDS011;39042;53.150;5.898;2023-04-01T06:51:02;21.52;;;12.10;;
53145;SDS011;39042;53.150;5.898;2023-04-01T06:54:05;21.33;;;12.30;;
53145;SDS011;39042;53.150;5.898;2023-04-01T06:56:58;20.67;;;12.35;;
53145;SDS011;39042;53.150;5.898;2023-04-01T06:59:34;18.52;;;11.80;;
53145;SDS011;39042;53.150;5.898;2023-04-01T07:05:10;21.80;;;12.52;;
53145;SDS011;39042;53.150;5.898;2023-04-01T07:07:41;19.70;;;11.02;;
53145;SDS011;39042;53.150;5.898;2023-04-01T07:13:35;20.08;;;10.35;;
53145;SDS011;39042;53.150;5.898;2023-04-01T07:16:26;17.33;;;10.52;;
53145;SDS011;39042;53.150;5.898;2023-04-01T07:18:54;16.92;;;9.85;;
53145;SDS011;39042;53.150;5.898;2023-04-01T07:21:35;17.40;;;10.38;;
53145;SDS011;39042;53.150;5.898;2023-04-01T07:24:16;18.65;;;10.00;;
53145;SDS011;39042;53.150;5.898;2023-04-01T07:26:55;20.00;;;10.50;;
53145;SDS011;39042;53.150;5.898;2023-04-01T07:29:25;18.23;;;10.48;;
53145;SDS011;39042;53.150;5.898;2023-04-01T07:38:01;21.05;;;12.18;;
53145;SDS011;39042;53.150;5.898;2023-04-01T07:43:50;20.33;;;11.52;;
53145;SDS011;39042;53.150;5.898;2023-04-01T07:46:39;23.73;;;13.23;;
53145;SDS011;39042;53.150;5.898;2023-04-01T07:49:33;21.65;;;13.30;;
53145;SDS011;39042;53.150;5.898;2023-04-01T07:52:16;20.75;;;12.07;;
53145;SDS011;39042;53.150;5.898;2023-04-01T07:54:55;22.50;;;11.65;;
53145;SDS011;39042;53.150;5.898;2023-04-01T08:00:22;23.15;;;13.07;;
53145;SDS011;39042;53.150;5.898;2023-04-01T08:09:06;22.48;;;13.38;;
53145;SDS011;39042;53.150;5.898;2023-04-01T08:11:58;21.52;;;12.98;;
53145;SDS011;39042;53.150;5.898;2023-04-01T08:18:06;21.70;;;13.55;;
53145;SDS011;39042;53.150;5.898;2023-04-01T08:23:22;26.65;;;14.05;;
53145;SDS011;39042;53.150;5.898;2023-04-01T08:25:54;26.40;;;13.70;;
53145;SDS011;39042;53.150;5.898;2023-04-01T08:31:10;22.52;;;13.13;;
53145;SDS011;39042;53.150;5.898;2023-04-01T08:33:42;22.38;;;12.73;;
53145;SDS011;39042;53.150;5.898;2023-04-01T08:53:06;14.57;;;7.78;;
53145;SDS011;39042;53.150;5.898;2023-04-01T09:09:32;11.30;;;5.70;;
53145;SDS011;39042;53.150;5.898;2023-04-01T09:12:19;11.15;;;6.30;;
53145;SDS011;39042;53.150;5.898;2023-04-01T09:23:08;9.05;;;6.10;;
53145;SDS011;39042;53.150;5.898;2023-04-01T09:28:43;9.65;;;5.60;;
53145;SDS011;39042;53.150;5.898;2023-04-01T09:31:22;7.88;;;5.15;;
53145;SDS011;39042;53.150;5.898;2023-04-01T09:37:21;9.38;;;5.07;;
53145;SDS011;39042;53.150;5.898;2023-04-01T11:47:39;5.78;;;1.73;;
53145;SDS011;39042;53.150;5.898;2023-04-01T11:50:33;2.28;;;1.80;;
53145;SDS011;39042;53.150;5.898;2023-04-01T11:53:23;3.58;;;2.20;;
53145;SDS011;39042;53.150;5.898;2023-04-01T12:04:25;5.53;;;2.20;;
53145;SDS011;39042;53.150;5.898;2023-04-01T12:09:52;4.00;;;2.30;;
53145;SDS011;39042;53.150;5.898;2023-04-01T12:12:41;3.55;;;2.05;;
53145;SDS011;39042;53.150;5.898;2023-04-01T12:21:36;2.72;;;1.77;;
53145;SDS011;39042;53.150;5.898;2023-04-01T12:38:20;4.00;;;2.20;;
53145;SDS011;39042;53.150;5.898;2023-04-01T12:46:34;3.85;;;1.55;;
53145;SDS011;39042;53.150;5.898;2023-04-01T12:52:16;2.40;;;1.52;;
53145;SDS011;39042;53.150;5.898;2023-04-01T12:57:32;3.22;;;1.65;;
53145;SDS011;39042;53.150;5.898;2023-04-01T13:00:28;2.58;;;1.50;;
53145;SDS011;39042;53.150;5.898;2023-04-01T13:06:41;2.97;;;1.58;;
53145;SDS011;39042;53.150;5.898;2023-04-01T13:09:45;1.60;;;1.05;;
53145;SDS011;39042;53.150;5.898;2023-04-01T13:20:56;3.75;;;1.20;;
53145;SDS011;39042;53.150;5.898;2023-04-01T13:24:18;2.13;;;1.02;;
53145;SDS011;39042;53.150;5.898;2023-04-01T13:29:32;1.90;;;1.17;;
53145;SDS011;39042;53.150;5.898;2023-04-01T13:40:57;4.60;;;1.60;;
53145;SDS011;39042;53.150;5.898;2023-04-01T13:43:39;2.10;;;1.45;;
53145;SDS011;39042;53.150;5.898;2023-04-01T13:46:16;4.50;;;1.38;;
53145;SDS011;39042;53.150;5.898;2023-04-01T14:08:14;3.53;;;1.00;;
53145;SDS011;39042;53.150;5.898;2023-04-01T14:11:13;2.85;;;1.25;;
53145;SDS011;39042;53.150;5.898;2023-04-01T14:24:56;12.88;;;8.13;;
53145;SDS011;39042;53.150;5.898;2023-04-01T14:33:04;5.78;;;2.05;;
53145;SDS011;39042;53.150;5.898;2023-04-01T14:35:46;8.60;;;5.88;;
53145;SDS011;39042;53.150;5.898;2023-04-01T14:41:02;1.83;;;1.52;;
53145;SDS011;39042;53.150;5.898;2023-04-01T14:43:55;1.95;;;1.10;;
53145;SDS011;39042;53.150;5.898;2023-04-01T14:49:32;3.05;;;1.30;;
53145;SDS011;39042;53.150;5.898;2023-04-01T14:52:10;1.58;;;0.73;;
53145;SDS011;39042;53.150;5.898;2023-04-01T15:00:15;2.42;;;0.80;;
53145;SDS011;39042;53.150;5.898;2023-04-01T15:05:49;2.55;;;0.82;;
53145;SDS011;39042;53.150;5.898;2023-04-01T15:19:58;2.33;;;1.25;;
53145;SDS011;39042;53.150;5.898;2023-04-01T15:30:56;3.13;;;1.35;;
53145;SDS011;39042;53.150;5.898;2023-04-01T15:39:17;3.83;;;2.00;;
53145;SDS011;39042;53.150;5.898;2023-04-01T15:58:31;4.70;;;1.98;;
53145;SDS011;39042;53.150;5.898;2023-04-01T16:10:04;9.02;;;3.15;;
53145;SDS011;39042;53.150;5.898;2023-04-01T16:12:46;5.03;;;3.53;;
53145;SDS011;39042;53.150;5.898;2023-04-01T16:26:24;13.07;;;4.35;;
53145;SDS011;39042;53.150;5.898;2023-04-01T16:29:24;9.90;;;3.88;;
53145;SDS011;39042;53.150;5.898;2023-04-01T16:51:19;9.25;;;4.65;;
53145;SDS011;39042;53.150;5.898;2023-04-01T16:56:52;8.27;;;4.53;;
53145;SDS011;39042;53.150;5.898;2023-04-01T16:59:37;13.40;;;5.15;;
53145;SDS011;39042;53.150;5.898;2023-04-01T17:04:37;11.47;;;5.00;;
53145;SDS011;39042;53.150;5.898;2023-04-01T17:20:43;11.10;;;5.30;;
53145;SDS011;39042;53.150;5.898;2023-04-01T17:26:05;10.60;;;4.68;;
53145;SDS011;39042;53.150;5.898;2023-04-01T17:32:11;9.15;;;4.60;;
53145;SDS011;39042;53.150;5.898;2023-04-01T17:35:26;9.18;;;4.70;;
53145;SDS011;39042;53.150;5.898;2023-04-01T17:41:03;8.63;;;5.55;;
53145;SDS011;39042;53.150;5.898;2023-04-01T17:49:53;9.20;;;4.47;;
53145;SDS011;39042;53.150;5.898;2023-04-01T17:52:32;8.43;;;4.82;;
53145;SDS011;39042;53.150;5.898;2023-04-01T18:12:21;67.35;;;25.77;;
53145;SDS011;39042;53.150;5.898;2023-04-01T18:15:25;65.75;;;28.80;;
53145;SDS011;39042;53.150;5.898;2023-04-01T18:23:53;14.98;;;7.53;;
53145;SDS011;39042;53.150;5.898;2023-04-01T18:26:28;12.63;;;7.03;;
53145;SDS011;39042;53.150;5.898;2023-04-01T18:31:45;7.53;;;4.10;;
53145;SDS011;39042;53.150;5.898;2023-04-01T18:34:18;10.82;;;4.60;;
53145;SDS011;39042;53.150;5.898;2023-04-01T18:36:50;13.05;;;4.22;;
53145;SDS011;39042;53.150;5.898;2023-04-01T18:39:37;11.55;;;4.35;;
53145;SDS011;39042;53.150;5.898;2023-04-01T18:44:57;8.27;;;4.70;;
53145;SDS011;39042;53.150;5.898;2023-04-01T18:50:30;10.70;;;4.90;;
53145;SDS011;39042;53.150;5.898;2023-04-01T18:56:11;11.50;;;4.70;;
53145;SDS011;39042;53.150;5.898;2023-04-01T19:04:31;12.48;;;5.50;;
53145;SDS011;39042;53.150;5.898;2023-04-01T19:15:50;12.05;;;5.53;;
53145;SDS011;39042;53.150;5.898;2023-04-01T19:21:36;14.48;;;5.95;;
53145;SDS011;39042;53.150;5.898;2023-04-01T19:40:33;15.25;;;6.82;;
53145;SDS011;39042;53.150;5.898;2023-04-01T19:43:15;12.63;;;5.97;;
53145;SDS011;39042;53.150;5.898;2023-04-01T19:45:47;11.43;;;5.32;;
53145;SDS011;39042;53.150;5.898;2023-04-01T19:51:13;8.55;;;5.22;;
53145;SDS011;39042;53.150;5.898;2023-04-01T20:07:12;11.30;;;5.28;;
53145;SDS011;39042;53.150;5.898;2023-04-01T20:09:57;13.95;;;5.00;;
53145;SDS011;39042;53.150;5.898;2023-04-01T20:12:42;12.45;;;5.45;;
53145;SDS011;39042;53.150;5.898;2023-04-01T20:15:33;8.57;;;5.15;;
53145;SDS011;39042;53.150;5.898;2023-04-01T20:18:19;11.77;;;5.63;;
53145;SDS011;39042;53.150;5.898;2023-04-01T20:20:59;14.05;;;6.38;;
53145;SDS011;39042;53.150;5.898;2023-04-01T20:26:28;14.75;;;5.60;;
53145;SDS011;39042;53.150;5.898;2023-04-01T20:48:11;15.90;;;6.75;;
53145;SDS011;39042;53.150;5.898;2023-04-01T21:01:08;9.15;;;5.40;;
53145;SDS011;39042;53.150;5.898;2023-04-01T21:15:26;12.95;;;5.57;;
53145;SDS011;39042;53.150;5.898;2023-04-01T21:18:34;9.75;;;4.53;;
53145;SDS011;39042;53.150;5.898;2023-04-01T21:29:29;8.80;;;4.47;;
53145;SDS011;39042;53.150;5.898;2023-04-01T21:35:09;9.35;;;4.13;;
53145;SDS011;39042;53.150;5.898;2023-04-01T21:37:49;7.95;;;3.78;;
53145;SDS011;39042;53.150;5.898;2023-04-01T21:49:08;13.45;;;4.35;;
53145;SDS011;39042;53.150;5.898;2023-04-01T21:59:57;8.73;;;3.70;;
53145;SDS011;39042;53.150;5.898;2023-04-01T22:05:30;10.02;;;4.40;;
53145;SDS011;39042;53.150;5.898;2023-04-01T22:08:26;8.73;;;4.10;;
53145;SDS011;39042;53.150;5.898;2023-04-01T22:27:35;11.07;;;3.78;;
53145;SDS011;39042;53.150;5.898;2023-04-01T22:33:10;10.20;;;4.78;;
53145;SDS011;39042;53.150;5.898;2023-04-01T22:44:28;10.20;;;3.28;;
53145;SDS011;39042;53.150;5.898;2023-04-01T22:47:04;11.10;;;3.67;;
53145;SDS011;39042;53.150;5.898;2023-04-01T22:50:08;7.82;;;3.38;;
53145;SDS011;39042;53.150;5.898;2023-04-01T22:52:37;7.43;;;3.70;;
53145;SDS011;39042;53.150;5.898;2023-04-01T22:55:17;10.55;;;3.13;;
53145;SDS011;39042;53.150;5.898;2023-04-01T22:57:50;10.18;;;3.45;;
53145;SDS011;39042;53.150;5.898;2023-04-01T23:00:29;8.77;;;3.40;;
53145;SDS011;39042;53.150;5.898;2023-04-01T23:05:25;10.70;;;3.67;;
53145;SDS011;39042;53.150;5.898;2023-04-01T23:10:56;8.85;;;3.03;;
53145;SDS011;39042;53.150;5.898;2023-04-01T23:13:35;6.85;;;3.28;;
53145;SDS011;39042;53.150;5.898;2023-04-01T23:16:05;8.00;;;4.18;;
53145;SDS011;39042;53.150;5.898;2023-04-01T23:18:37;8.43;;;3.42;;
53145;SDS011;39042;53.150;5.898;2023-04-01T23:21:18;7.78;;;3.53;;
53145;SDS011;39042;53.150;5.898;2023-04-01T23:24:03;5.65;;;2.60;;
53145;SDS011;39042;53.150;5.898;2023-04-01T23:26:39;10.25;;;3.00;;
53145;SDS011;39042;53.150;5.898;2023-04-01T23:29:15;6.03;;;2.53;;
53145;SDS011;39042;53.150;5.898;2023-04-01T23:31:42;6.15;;;3.10;;
53145;SDS011;39042;53.150;5.898;2023-04-01T23:36:49;11.50;;;3.83;;
53145;SDS011;39042;53.150;5.898;2023-04-01T23:41:56;9.82;;;3.45;;
53145;SDS011;39042;53.150;5.898;2023-04-01T23:44:27;9.75;;;2.53;;
53145;SDS011;39042;53.150;5.898;2023-04-01T23:46:55;8.20;;;2.92;;
53145;SDS011;39042;53.150;5.898;2023-04-01T23:49:25;11.35;;;2.75;;
53145;SDS011;39042;53.150;5.898;2023-04-01T23:51:59;7.50;;;2.65;;
53145;SDS011;39042;53.150;5.898;2023-04-01T23:54:30;12.45;;;3.20;;
53145;SDS011;39042;53.150;5.898;2023-04-01T23:57:09;6.60;;;2.37;;
53145;SDS011;39042;53.150;5.898;2023-04-01T23:59:42;8.00;;;2.88;;
